createdAt,value
2017-03-27T00:00:24.717Z,1018.84
2017-03-27T00:00:50.826Z,1018.85
2017-03-27T00:01:16.900Z,1018.82
2017-03-27T00:01:43.001Z,1018.82
2017-03-27T00:02:09.106Z,1018.85
2017-03-27T00:02:35.208Z,1018.83
2017-03-27T00:03:01.358Z,1018.84
2017-03-27T00:03:27.510Z,1018.83
2017-03-27T00:03:53.638Z,1018.89
2017-03-27T00:04:19.768Z,1018.85
2017-03-27T00:04:45.867Z,1018.9
2017-03-27T00:05:11.967Z,1018.87
2017-03-27T00:05:38.049Z,1018.86
2017-03-27T00:06:04.156Z,1018.88
2017-03-27T00:06:30.280Z,1018.88
2017-03-27T00:06:56.361Z,1018.88
2017-03-27T00:07:22.486Z,1018.87
2017-03-27T00:07:48.588Z,1018.9
2017-03-27T00:08:14.691Z,1018.87
2017-03-27T00:08:40.867Z,1018.87
2017-03-27T00:09:06.966Z,1018.89
2017-03-27T00:09:33.111Z,1018.91
2017-03-27T00:09:59.215Z,1018.89
2017-03-27T00:10:25.297Z,1018.92
2017-03-27T00:10:51.423Z,1018.9
2017-03-27T00:11:17.528Z,1018.89
2017-03-27T00:11:43.631Z,1018.88
2017-03-27T00:12:09.760Z,1018.88
2017-03-27T00:12:35.871Z,1018.87
2017-03-27T00:13:01.997Z,1018.87
2017-03-27T00:13:28.124Z,1018.87
2017-03-27T00:13:54.249Z,1018.89
2017-03-27T00:14:20.374Z,1018.87
2017-03-27T00:14:46.478Z,1018.87
2017-03-27T00:15:12.578Z,1018.85
2017-03-27T00:15:38.682Z,1018.87
2017-03-27T00:16:07.841Z,1018.87
2017-03-27T00:16:33.920Z,1018.87
2017-03-27T00:17:00.685Z,1018.84
2017-03-27T00:18:18.652Z,1018.82
2017-03-27T00:18:44.804Z,1018.82
2017-03-27T00:19:10.906Z,1018.83
2017-03-27T00:19:37.035Z,1018.84
2017-03-27T00:20:03.115Z,1018.84
2017-03-27T00:20:29.409Z,1018.83
2017-03-27T00:20:55.488Z,1018.84
2017-03-27T00:21:21.592Z,1018.8
2017-03-27T00:21:47.694Z,1018.78
2017-03-27T00:22:13.823Z,1018.78
2017-03-27T00:22:39.949Z,1018.78
2017-03-27T00:23:06.056Z,1018.8
2017-03-27T00:23:32.193Z,1018.79
2017-03-27T00:23:58.332Z,1018.77
2017-03-27T00:24:24.461Z,1018.77
2017-03-27T00:24:50.608Z,1018.77
2017-03-27T00:25:16.733Z,1018.72
2017-03-27T00:25:42.839Z,1018.76
2017-03-27T00:26:08.921Z,1018.75
2017-03-27T00:26:35.072Z,1018.73
2017-03-27T00:27:01.169Z,1018.75
2017-03-27T00:27:27.272Z,1018.74
2017-03-27T00:27:53.378Z,1018.73
2017-03-27T00:28:19.560Z,1018.73
2017-03-27T00:28:45.681Z,1018.79
2017-03-27T00:29:11.786Z,1018.76
2017-03-27T00:29:37.937Z,1018.75
2017-03-27T00:30:04.063Z,1018.77
2017-03-27T00:30:30.143Z,1018.78
2017-03-27T00:30:56.225Z,1018.75
2017-03-27T00:31:22.307Z,1018.78
2017-03-27T00:31:48.434Z,1018.78
2017-03-27T00:32:14.516Z,1018.75
2017-03-27T00:32:40.617Z,1018.73
2017-03-27T00:33:06.745Z,1018.75
2017-03-27T00:33:32.871Z,1018.73
2017-03-27T00:33:58.975Z,1018.71
2017-03-27T00:34:25.148Z,1018.7
2017-03-27T00:34:51.278Z,1018.71
2017-03-27T00:35:17.405Z,1018.72
2017-03-27T00:35:43.511Z,1018.69
2017-03-27T00:36:09.591Z,1018.71
2017-03-27T00:36:35.716Z,1018.72
2017-03-27T00:37:01.863Z,1018.72
2017-03-27T00:37:28.010Z,1018.67
2017-03-27T00:37:54.137Z,1018.66
2017-03-27T00:38:20.296Z,1018.66
2017-03-27T00:38:46.416Z,1018.71
2017-03-27T00:39:12.562Z,1018.69
2017-03-27T00:39:38.665Z,1018.68
2017-03-27T00:40:04.792Z,1018.64
2017-03-27T00:40:30.869Z,1018.66
2017-03-27T00:40:56.975Z,1018.63
2017-03-27T00:41:23.079Z,1018.65
2017-03-27T00:41:49.204Z,1018.67
2017-03-27T00:42:15.307Z,1018.65
2017-03-27T00:42:41.431Z,1018.66
2017-03-27T00:43:07.560Z,1018.66
2017-03-27T00:43:33.710Z,1018.67
2017-03-27T00:43:59.888Z,1018.67
2017-03-27T00:44:26.017Z,1018.63
2017-03-27T00:47:26.331Z,1018.63
2017-03-27T00:47:52.483Z,1018.64
2017-03-27T00:48:18.633Z,1018.64
2017-03-27T00:48:44.761Z,1018.65
2017-03-27T00:49:10.889Z,1018.6
2017-03-27T00:49:37.017Z,1018.63
2017-03-27T00:50:03.122Z,1018.59
2017-03-27T00:50:29.224Z,1018.62
2017-03-27T00:50:55.327Z,1018.6
2017-03-27T00:51:21.431Z,1018.6
2017-03-27T00:51:47.516Z,1018.63
2017-03-27T00:52:13.598Z,1018.6
2017-03-27T00:52:39.678Z,1018.59
2017-03-27T00:53:05.827Z,1018.61
2017-03-27T00:53:31.957Z,1018.59
2017-03-27T00:53:58.106Z,1018.58
2017-03-27T00:54:24.207Z,1018.57
2017-03-27T00:54:50.336Z,1018.56
2017-03-27T00:55:16.484Z,1018.59
2017-03-27T00:55:42.586Z,1018.58
2017-03-27T00:56:08.668Z,1018.57
2017-03-27T00:56:34.791Z,1018.55
2017-03-27T00:57:00.920Z,1018.58
2017-03-27T00:57:27.026Z,1018.58
2017-03-27T00:57:53.177Z,1018.57
2017-03-27T00:58:19.284Z,1018.55
2017-03-27T00:58:45.414Z,1018.61
2017-03-27T00:59:11.589Z,1018.57
2017-03-27T00:59:37.696Z,1018.57
2017-03-27T01:00:03.848Z,1018.62
2017-03-27T01:00:29.931Z,1018.61
2017-03-27T01:00:56.061Z,1018.58
2017-03-27T01:01:22.143Z,1018.58
2017-03-27T01:01:48.223Z,1018.65
2017-03-27T01:02:14.325Z,1018.63
2017-03-27T01:02:40.498Z,1018.62
2017-03-27T01:03:06.646Z,1018.63
2017-03-27T01:03:32.800Z,1018.66
2017-03-27T01:03:58.949Z,1018.64
2017-03-27T01:04:25.074Z,1018.6
2017-03-27T01:04:51.200Z,1018.61
2017-03-27T01:05:17.281Z,1018.58
2017-03-27T01:05:43.387Z,1018.61
2017-03-27T01:06:09.490Z,1018.59
2017-03-27T01:06:35.569Z,1018.63
2017-03-27T01:07:01.676Z,1018.6
2017-03-27T01:07:27.781Z,1018.59
2017-03-27T01:07:53.887Z,1018.57
2017-03-27T01:08:20.011Z,1018.6
2017-03-27T01:08:46.161Z,1018.63
2017-03-27T01:09:12.332Z,1018.65
2017-03-27T01:09:38.435Z,1018.64
2017-03-27T01:10:04.581Z,1018.62
2017-03-27T01:10:30.686Z,1018.62
2017-03-27T01:10:56.790Z,1018.67
2017-03-27T01:11:22.913Z,1018.63
2017-03-27T01:11:49.020Z,1018.66
2017-03-27T01:12:15.098Z,1018.66
2017-03-27T01:12:41.295Z,1018.67
2017-03-27T01:13:07.399Z,1018.68
2017-03-27T01:13:33.548Z,1018.66
2017-03-27T01:13:59.697Z,1018.71
2017-03-27T01:14:25.800Z,1018.67
2017-03-27T01:14:52.929Z,1018.65
2017-03-27T01:15:19.031Z,1018.65
2017-03-27T01:17:22.041Z,1018.67
2017-03-27T01:17:48.217Z,1018.68
2017-03-27T01:18:14.341Z,1018.68
2017-03-27T01:18:50.732Z,1018.67
2017-03-27T01:19:16.810Z,1018.66
2017-03-27T01:19:42.935Z,1018.68
2017-03-27T01:20:09.037Z,1018.66
2017-03-27T01:20:35.191Z,1018.65
2017-03-27T01:21:01.311Z,1018.7
2017-03-27T01:21:27.390Z,1018.68
2017-03-27T01:21:53.468Z,1018.68
2017-03-27T01:22:19.595Z,1018.7
2017-03-27T01:22:45.701Z,1018.73
2017-03-27T01:23:11.802Z,1018.71
2017-03-27T01:23:37.907Z,1018.71
2017-03-27T01:24:04.052Z,1018.71
2017-03-27T01:24:30.178Z,1018.7
2017-03-27T01:24:56.282Z,1018.73
2017-03-27T01:25:22.407Z,1018.67
2017-03-27T01:25:48.509Z,1018.7
2017-03-27T01:26:14.609Z,1018.71
2017-03-27T01:26:40.715Z,1018.73
2017-03-27T01:27:06.838Z,1018.71
2017-03-27T01:27:32.917Z,1018.7
2017-03-27T01:27:59.045Z,1018.7
2017-03-27T01:28:25.189Z,1018.77
2017-03-27T01:28:51.360Z,1018.71
2017-03-27T01:29:17.531Z,1018.74
2017-03-27T01:29:43.639Z,1018.73
2017-03-27T01:30:09.717Z,1018.75
2017-03-27T01:30:35.839Z,1018.74
2017-03-27T01:31:01.919Z,1018.76
2017-03-27T01:31:28.000Z,1018.73
2017-03-27T01:31:54.077Z,1018.71
2017-03-27T01:32:20.158Z,1018.74
2017-03-27T01:32:46.259Z,1018.74
2017-03-27T01:33:12.357Z,1018.74
2017-03-27T01:33:38.509Z,1018.73
2017-03-27T01:34:04.615Z,1018.76
2017-03-27T01:34:30.754Z,1018.75
2017-03-27T01:34:56.857Z,1018.81
2017-03-27T01:35:22.958Z,1018.75
2017-03-27T01:35:49.062Z,1018.75
2017-03-27T01:36:15.142Z,1018.78
2017-03-27T01:36:41.244Z,1018.74
2017-03-27T01:37:07.346Z,1018.74
2017-03-27T01:37:33.474Z,1018.73
2017-03-27T01:37:59.596Z,1018.77
2017-03-27T01:38:25.744Z,1018.76
2017-03-27T01:38:51.866Z,1018.71
2017-03-27T01:39:18.016Z,1018.74
2017-03-27T01:39:44.141Z,1018.75
2017-03-27T01:40:10.271Z,1018.73
2017-03-27T01:40:36.350Z,1018.76
2017-03-27T01:41:02.451Z,1018.73
2017-03-27T01:41:28.578Z,1018.72
2017-03-27T01:41:54.659Z,1018.72
2017-03-27T01:42:20.763Z,1018.73
2017-03-27T01:42:46.866Z,1018.69
2017-03-27T01:43:12.991Z,1018.73
2017-03-27T01:43:39.112Z,1018.72
2017-03-27T01:44:05.217Z,1018.72
2017-03-27T01:44:31.349Z,1018.75
2017-03-27T01:44:57.466Z,1018.77
2017-03-27T01:45:23.544Z,1018.74
2017-03-27T01:45:49.623Z,1018.73
2017-03-27T01:46:15.748Z,1018.75
2017-03-27T01:46:41.854Z,1018.76
2017-03-27T01:47:07.974Z,1018.76
2017-03-27T01:47:34.103Z,1018.72
2017-03-27T01:48:00.208Z,1018.74
2017-03-27T01:48:26.335Z,1018.69
2017-03-27T01:48:52.460Z,1018.75
2017-03-27T01:49:18.608Z,1018.73
2017-03-27T01:49:44.709Z,1018.76
2017-03-27T01:50:10.815Z,1018.71
2017-03-27T01:50:36.940Z,1018.75
2017-03-27T01:51:03.022Z,1018.78
2017-03-27T01:51:29.097Z,1018.77
2017-03-27T01:51:55.180Z,1018.72
2017-03-27T01:52:21.259Z,1018.77
2017-03-27T01:52:47.386Z,1018.8
2017-03-27T01:53:13.510Z,1018.78
2017-03-27T01:53:39.637Z,1018.79
2017-03-27T01:54:05.782Z,1018.79
2017-03-27T01:54:31.954Z,1018.8
2017-03-27T01:54:58.056Z,1018.81
2017-03-27T01:55:24.135Z,1018.8
2017-03-27T01:55:50.210Z,1018.85
2017-03-27T01:56:16.313Z,1018.84
2017-03-27T01:56:42.419Z,1018.82
2017-03-27T01:57:08.563Z,1018.83
2017-03-27T01:57:34.667Z,1018.84
2017-03-27T01:58:00.816Z,1018.84
2017-03-27T01:58:26.943Z,1018.85
2017-03-27T01:58:53.092Z,1018.87
2017-03-27T01:59:19.215Z,1018.84
2017-03-27T01:59:45.316Z,1018.79
2017-03-27T02:00:11.440Z,1018.83
2017-03-27T02:00:37.542Z,1018.82
2017-03-27T02:01:03.644Z,1018.81
2017-03-27T02:01:29.764Z,1018.8
2017-03-27T02:01:55.866Z,1018.81
2017-03-27T02:02:21.966Z,1018.79
2017-03-27T02:02:48.070Z,1018.77
2017-03-27T02:03:14.172Z,1018.78
2017-03-27T02:03:40.272Z,1018.77
2017-03-27T02:04:06.395Z,1018.77
2017-03-27T02:04:32.524Z,1018.77
2017-03-27T02:04:58.629Z,1018.76
2017-03-27T02:05:24.779Z,1018.76
2017-03-27T02:05:50.904Z,1018.78
2017-03-27T02:06:17.031Z,1018.75
2017-03-27T02:06:43.133Z,1018.74
2017-03-27T02:07:09.231Z,1018.79
2017-03-27T02:07:35.358Z,1018.77
2017-03-27T02:08:01.486Z,1018.73
2017-03-27T02:08:27.614Z,1018.71
2017-03-27T02:08:53.742Z,1018.68
2017-03-27T02:09:19.869Z,1018.75
2017-03-27T02:09:45.951Z,1018.74
2017-03-27T02:10:12.099Z,1018.71
2017-03-27T02:10:38.196Z,1018.69
2017-03-27T02:11:04.277Z,1018.75
2017-03-27T02:11:30.356Z,1018.7
2017-03-27T02:11:56.479Z,1018.7
2017-03-27T02:12:22.606Z,1018.66
2017-03-27T02:12:48.733Z,1018.67
2017-03-27T02:13:14.905Z,1018.64
2017-03-27T02:13:41.056Z,1018.62
2017-03-27T02:14:07.189Z,1018.65
2017-03-27T02:14:33.331Z,1018.64
2017-03-27T02:14:59.457Z,1018.64
2017-03-27T02:15:25.532Z,1018.63
2017-03-27T02:15:51.617Z,1018.64
2017-03-27T02:16:17.714Z,1018.6
2017-03-27T02:16:43.794Z,1018.62
2017-03-27T02:17:09.874Z,1018.62
2017-03-27T02:17:35.974Z,1018.6
2017-03-27T02:18:02.420Z,1018.63
2017-03-27T02:18:28.542Z,1018.63
2017-03-27T02:18:54.714Z,1018.61
2017-03-27T02:19:20.839Z,1018.62
2017-03-27T02:19:46.966Z,1018.58
2017-03-27T02:20:13.069Z,1018.59
2017-03-27T02:20:39.147Z,1018.58
2017-03-27T02:21:05.249Z,1018.57
2017-03-27T02:21:31.327Z,1018.54
2017-03-27T02:21:57.430Z,1018.54
2017-03-27T02:22:23.531Z,1018.58
2017-03-27T02:22:49.636Z,1018.55
2017-03-27T02:23:15.736Z,1018.57
2017-03-27T02:23:41.885Z,1018.55
2017-03-27T02:24:07.984Z,1018.54
2017-03-27T02:24:34.091Z,1018.53
2017-03-27T02:25:00.213Z,1018.54
2017-03-27T02:25:26.317Z,1018.53
2017-03-27T02:25:52.439Z,1018.54
2017-03-27T02:26:18.517Z,1018.57
2017-03-27T02:26:44.621Z,1018.56
2017-03-27T02:27:10.724Z,1018.56
2017-03-27T02:27:36.801Z,1018.55
2017-03-27T02:28:02.953Z,1018.57
2017-03-27T02:28:29.057Z,1018.59
2017-03-27T02:28:55.224Z,1018.56
2017-03-27T02:29:21.396Z,1018.53
2017-03-27T02:29:47.470Z,1018.54
2017-03-27T02:30:13.576Z,1018.51
2017-03-27T02:30:41.071Z,1018.48
2017-03-27T02:31:07.156Z,1018.53
2017-03-27T02:31:33.231Z,1018.49
2017-03-27T02:31:59.353Z,1018.48
2017-03-27T02:32:25.456Z,1018.49
2017-03-27T02:32:51.582Z,1018.48
2017-03-27T02:33:17.901Z,1018.42
2017-03-27T02:33:44.004Z,1018.47
2017-03-27T02:34:10.107Z,1018.46
2017-03-27T02:34:36.208Z,1018.41
2017-03-27T02:35:02.287Z,1018.42
2017-03-27T02:35:28.412Z,1018.4
2017-03-27T02:35:54.491Z,1018.41
2017-03-27T02:36:20.572Z,1018.42
2017-03-27T02:36:46.672Z,1018.42
2017-03-27T02:37:12.772Z,1018.44
2017-03-27T02:37:38.876Z,1018.42
2017-03-27T02:38:05.023Z,1018.42
2017-03-27T02:38:31.180Z,1018.45
2017-03-27T02:38:57.271Z,1018.43
2017-03-27T02:39:23.376Z,1018.41
2017-03-27T02:39:49.743Z,1018.42
2017-03-27T02:40:15.843Z,1018.42
2017-03-27T02:40:41.945Z,1018.42
2017-03-27T02:41:08.047Z,1018.41
2017-03-27T02:41:34.151Z,1018.41
2017-03-27T02:42:00.279Z,1018.41
2017-03-27T02:42:26.380Z,1018.39
2017-03-27T02:42:52.525Z,1018.38
2017-03-27T02:43:18.648Z,1018.41
2017-03-27T02:43:44.774Z,1018.42
2017-03-27T02:44:10.878Z,1018.39
2017-03-27T02:44:37.029Z,1018.37
2017-03-27T02:45:03.154Z,1018.35
2017-03-27T02:45:29.255Z,1018.38
2017-03-27T02:45:55.335Z,1018.38
2017-03-27T02:46:21.413Z,1018.37
2017-03-27T02:46:47.513Z,1018.33
2017-03-27T02:47:13.616Z,1018.32
2017-03-27T02:47:39.787Z,1018.37
2017-03-27T02:48:05.889Z,1018.37
2017-03-27T02:48:32.036Z,1018.33
2017-03-27T02:48:58.188Z,1018.36
2017-03-27T02:49:24.288Z,1018.33
2017-03-27T02:49:50.365Z,1018.35
2017-03-27T02:50:16.445Z,1018.27
2017-03-27T02:50:42.549Z,1018.31
2017-03-27T02:51:08.647Z,1018.31
2017-03-27T02:51:34.750Z,1018.3
2017-03-27T02:52:00.853Z,1018.24
2017-03-27T02:52:26.980Z,1018.28
2017-03-27T02:52:53.077Z,1018.28
2017-03-27T02:53:19.203Z,1018.28
2017-03-27T02:53:46.573Z,1018.29
2017-03-27T02:55:29.304Z,1018.31
2017-03-27T02:55:55.407Z,1018.27
2017-03-27T02:56:21.508Z,1018.31
2017-03-27T02:56:47.607Z,1018.26
2017-03-27T02:57:13.710Z,1018.24
2017-03-27T02:57:39.835Z,1018.24
2017-03-27T02:58:05.937Z,1018.26
2017-03-27T02:58:32.583Z,1018.29
2017-03-27T02:58:58.733Z,1018.28
2017-03-27T02:59:24.857Z,1018.27
2017-03-27T02:59:50.961Z,1018.29
2017-03-27T03:00:17.086Z,1018.29
2017-03-27T03:00:43.189Z,1018.29
2017-03-27T03:01:09.294Z,1018.32
2017-03-27T03:01:35.440Z,1018.29
2017-03-27T03:02:01.519Z,1018.32
2017-03-27T03:02:27.624Z,1018.33
2017-03-27T03:02:53.772Z,1018.33
2017-03-27T03:03:19.873Z,1018.34
2017-03-27T03:03:46.019Z,1018.36
2017-03-27T03:04:12.141Z,1018.34
2017-03-27T03:04:38.265Z,1018.35
2017-03-27T03:05:04.368Z,1018.38
2017-03-27T03:05:30.488Z,1018.34
2017-03-27T03:05:56.591Z,1018.35
2017-03-27T03:06:22.673Z,1018.31
2017-03-27T03:06:48.774Z,1018.29
2017-03-27T03:07:14.851Z,1018.32
2017-03-27T03:07:41.001Z,1018.33
2017-03-27T03:08:07.151Z,1018.35
2017-03-27T03:08:33.300Z,1018.34
2017-03-27T03:08:59.425Z,1018.33
2017-03-27T03:09:25.593Z,1018.31
2017-03-27T03:09:51.696Z,1018.34
2017-03-27T03:10:17.796Z,1018.34
2017-03-27T03:10:43.880Z,1018.38
2017-03-27T03:11:09.980Z,1018.39
2017-03-27T03:11:36.060Z,1018.35
2017-03-27T03:12:02.161Z,1018.37
2017-03-27T03:12:28.292Z,1018.34
2017-03-27T03:12:54.417Z,1018.34
2017-03-27T03:13:20.611Z,1018.35
2017-03-27T03:13:46.756Z,1018.35
2017-03-27T03:14:12.859Z,1018.3
2017-03-27T03:14:39.006Z,1018.34
2017-03-27T03:15:05.147Z,1018.37
2017-03-27T03:15:31.256Z,1018.36
2017-03-27T03:15:57.334Z,1018.37
2017-03-27T03:16:23.452Z,1018.37
2017-03-27T03:16:49.577Z,1018.35
2017-03-27T03:17:15.657Z,1018.37
2017-03-27T03:17:41.803Z,1018.36
2017-03-27T03:18:07.927Z,1018.36
2017-03-27T03:18:34.030Z,1018.37
2017-03-27T03:19:00.127Z,1018.38
2017-03-27T03:19:26.275Z,1018.38
2017-03-27T03:19:52.398Z,1018.36
2017-03-27T03:20:18.501Z,1018.39
2017-03-27T03:20:44.578Z,1018.39
2017-03-27T03:21:10.655Z,1018.36
2017-03-27T03:21:36.734Z,1018.36
2017-03-27T03:22:02.837Z,1018.38
2017-03-27T03:22:28.918Z,1018.37
2017-03-27T03:22:55.065Z,1018.39
2017-03-27T03:23:21.212Z,1018.37
2017-03-27T03:23:47.362Z,1018.4
2017-03-27T03:24:13.484Z,1018.4
2017-03-27T03:24:39.585Z,1018.43
2017-03-27T03:25:05.687Z,1018.39
2017-03-27T03:25:31.793Z,1018.42
2017-03-27T03:25:57.871Z,1018.37
2017-03-27T03:26:23.972Z,1018.42
2017-03-27T03:26:50.072Z,1018.36
2017-03-27T03:27:16.175Z,1018.38
2017-03-27T03:27:42.295Z,1018.39
2017-03-27T03:28:09.885Z,1018.42
2017-03-27T03:28:36.031Z,1018.41
2017-03-27T03:29:02.199Z,1018.39
2017-03-27T03:29:28.325Z,1018.39
2017-03-27T03:29:54.452Z,1018.4
2017-03-27T03:30:20.579Z,1018.42
2017-03-27T03:30:46.658Z,1018.42
2017-03-27T03:31:12.733Z,1018.44
2017-03-27T03:31:38.837Z,1018.39
2017-03-27T03:32:04.916Z,1018.43
2017-03-27T03:32:31.041Z,1018.44
2017-03-27T03:32:57.164Z,1018.44
2017-03-27T03:33:23.314Z,1018.48
2017-03-27T03:33:49.461Z,1018.42
2017-03-27T03:34:15.608Z,1018.48
2017-03-27T03:34:41.779Z,1018.48
2017-03-27T03:35:07.898Z,1018.46
2017-03-27T03:35:33.998Z,1018.49
2017-03-27T03:36:00.078Z,1018.45
2017-03-27T03:36:26.178Z,1018.49
2017-03-27T03:36:52.263Z,1018.49
2017-03-27T03:37:18.337Z,1018.43
2017-03-27T03:37:44.483Z,1018.48
2017-03-27T03:38:10.738Z,1018.47
2017-03-27T03:38:36.865Z,1018.45
2017-03-27T03:39:02.990Z,1018.47
2017-03-27T03:39:29.136Z,1018.47
2017-03-27T03:39:55.239Z,1018.46
2017-03-27T03:40:21.383Z,1018.45
2017-03-27T03:43:12.070Z,1018.49
2017-03-27T03:43:38.201Z,1018.49
2017-03-27T03:44:04.375Z,1018.47
2017-03-27T03:44:30.527Z,1018.5
2017-03-27T03:44:56.701Z,1018.48
2017-03-27T03:45:22.849Z,1018.46
2017-03-27T03:45:48.931Z,1018.47
2017-03-27T03:46:15.035Z,1018.45
2017-03-27T03:46:41.136Z,1018.42
2017-03-27T03:47:07.263Z,1018.45
2017-03-27T03:47:33.393Z,1018.44
2017-03-27T03:49:22.555Z,1018.4
2017-03-27T03:49:48.681Z,1018.43
2017-03-27T03:50:14.779Z,1018.46
2017-03-27T03:50:40.883Z,1018.47
2017-03-27T03:51:07.007Z,1018.43
2017-03-27T03:51:33.085Z,1018.45
2017-03-27T03:51:59.163Z,1018.44
2017-03-27T03:52:25.286Z,1018.45
2017-03-27T03:52:51.436Z,1018.44
2017-03-27T03:53:17.541Z,1018.47
2017-03-27T03:53:43.662Z,1018.46
2017-03-27T03:54:09.760Z,1018.46
2017-03-27T03:54:35.887Z,1018.47
2017-03-27T03:55:01.989Z,1018.42
2017-03-27T03:55:28.137Z,1018.51
2017-03-27T03:55:54.236Z,1018.46
2017-03-27T03:56:20.364Z,1018.47
2017-03-27T03:56:46.487Z,1018.47
2017-03-27T03:57:12.587Z,1018.42
2017-03-27T03:57:38.713Z,1018.48
2017-03-27T03:58:04.816Z,1018.48
2017-03-27T03:58:30.918Z,1018.49
2017-03-27T03:58:56.995Z,1018.48
2017-03-27T03:59:23.073Z,1018.48
2017-03-27T03:59:49.204Z,1018.47
2017-03-27T04:00:15.275Z,1018.54
2017-03-27T04:00:41.376Z,1018.48
2017-03-27T04:01:07.454Z,1018.47
2017-03-27T04:01:33.541Z,1018.49
2017-03-27T04:01:59.614Z,1018.53
2017-03-27T04:02:25.717Z,1018.56
2017-03-27T04:02:51.823Z,1018.52
2017-03-27T04:03:17.925Z,1018.53
2017-03-27T04:03:44.072Z,1018.52
2017-03-27T04:04:10.217Z,1018.54
2017-03-27T04:04:36.318Z,1018.54
2017-03-27T04:05:02.444Z,1018.55
2017-03-27T04:05:28.525Z,1018.58
2017-03-27T04:05:54.629Z,1018.55
2017-03-27T04:06:20.707Z,1018.56
2017-03-27T04:06:46.784Z,1018.58
2017-03-27T04:07:12.862Z,1018.57
2017-03-27T04:07:38.942Z,1018.58
2017-03-27T04:08:05.123Z,1018.59
2017-03-27T04:08:31.242Z,1018.59
2017-03-27T04:08:57.370Z,1018.58
2017-03-27T04:09:23.520Z,1018.56
2017-03-27T04:09:49.600Z,1018.56
2017-03-27T04:10:15.745Z,1018.56
2017-03-27T04:10:41.847Z,1018.6
2017-03-27T04:11:07.929Z,1018.56
2017-03-27T04:11:34.010Z,1018.56
2017-03-27T04:12:00.111Z,1018.57
2017-03-27T04:12:26.211Z,1018.59
2017-03-27T04:12:52.362Z,1018.56
2017-03-27T04:13:18.508Z,1018.56
2017-03-27T04:13:44.659Z,1018.56
2017-03-27T04:14:10.789Z,1018.55
2017-03-27T04:14:36.889Z,1018.54
2017-03-27T04:15:03.010Z,1018.59
2017-03-27T04:15:29.090Z,1018.57
2017-03-27T04:15:55.191Z,1018.56
2017-03-27T04:16:21.270Z,1018.6
2017-03-27T04:16:47.392Z,1018.58
2017-03-27T04:17:13.497Z,1018.6
2017-03-27T04:17:39.620Z,1018.58
2017-03-27T04:18:05.747Z,1018.57
2017-03-27T04:18:31.899Z,1018.62
2017-03-27T04:18:58.043Z,1018.61
2017-03-27T04:19:24.167Z,1018.61
2017-03-27T04:19:50.249Z,1018.62
2017-03-27T04:20:16.350Z,1018.63
2017-03-27T04:20:42.454Z,1018.64
2017-03-27T04:21:08.554Z,1018.65
2017-03-27T04:21:34.637Z,1018.67
2017-03-27T04:22:00.715Z,1018.64
2017-03-27T04:22:26.817Z,1018.67
2017-03-27T04:22:52.921Z,1018.69
2017-03-27T04:23:19.071Z,1018.66
2017-03-27T04:23:45.197Z,1018.66
2017-03-27T04:24:11.328Z,1018.67
2017-03-27T04:24:37.471Z,1018.69
2017-03-27T04:25:03.599Z,1018.67
2017-03-27T04:25:29.705Z,1018.66
2017-03-27T04:25:55.805Z,1018.67
2017-03-27T04:26:21.905Z,1018.68
2017-03-27T04:26:47.984Z,1018.67
2017-03-27T04:27:14.110Z,1018.67
2017-03-27T04:27:40.261Z,1018.67
2017-03-27T04:28:06.360Z,1018.72
2017-03-27T04:28:32.505Z,1018.7
2017-03-27T04:28:58.653Z,1018.71
2017-03-27T04:29:24.803Z,1018.69
2017-03-27T04:29:50.905Z,1018.71
2017-03-27T04:30:17.028Z,1018.72
2017-03-27T04:30:43.151Z,1018.7
2017-03-27T04:31:09.231Z,1018.72
2017-03-27T04:31:35.334Z,1018.71
2017-03-27T04:32:01.435Z,1018.68
2017-03-27T04:32:27.537Z,1018.7
2017-03-27T04:32:53.662Z,1018.7
2017-03-27T04:33:19.765Z,1018.68
2017-03-27T04:33:45.845Z,1018.71
2017-03-27T04:34:11.994Z,1018.66
2017-03-27T04:34:38.098Z,1018.72
2017-03-27T04:35:04.222Z,1018.7
2017-03-27T04:35:30.303Z,1018.67
2017-03-27T04:35:56.385Z,1018.71
2017-03-27T04:36:22.484Z,1018.7
2017-03-27T04:36:48.609Z,1018.73
2017-03-27T04:37:14.738Z,1018.68
2017-03-27T04:37:40.866Z,1018.71
2017-03-27T04:38:06.971Z,1018.69
2017-03-27T04:38:33.070Z,1018.73
2017-03-27T04:38:59.218Z,1018.7
2017-03-27T04:39:25.366Z,1018.72
2017-03-27T04:39:51.491Z,1018.76
2017-03-27T04:40:17.614Z,1018.76
2017-03-27T04:40:43.692Z,1018.75
2017-03-27T04:41:09.790Z,1018.75
2017-03-27T04:41:35.871Z,1018.76
2017-03-27T04:42:01.949Z,1018.75
2017-03-27T04:42:28.049Z,1018.73
2017-03-27T04:42:54.155Z,1018.75
2017-03-27T04:43:20.325Z,1018.74
2017-03-27T04:43:46.497Z,1018.75
2017-03-27T04:44:12.622Z,1018.76
2017-03-27T04:44:38.770Z,1018.78
2017-03-27T04:45:04.870Z,1018.76
2017-03-27T04:45:30.950Z,1018.76
2017-03-27T04:45:57.031Z,1018.75
2017-03-27T04:46:23.110Z,1018.74
2017-03-27T04:46:49.258Z,1018.78
2017-03-27T04:47:15.312Z,1018.73
2017-03-27T04:47:41.416Z,1018.73
2017-03-27T04:48:07.585Z,1018.73
2017-03-27T04:48:33.733Z,1018.75
2017-03-27T04:48:59.833Z,1018.73
2017-03-27T04:49:25.936Z,1018.74
2017-03-27T04:49:52.058Z,1018.73
2017-03-27T04:50:18.181Z,1018.73
2017-03-27T04:50:44.282Z,1018.74
2017-03-27T04:51:10.384Z,1018.74
2017-03-27T04:51:36.509Z,1018.77
2017-03-27T04:52:02.588Z,1018.76
2017-03-27T04:52:28.695Z,1018.81
2017-03-27T04:52:54.842Z,1018.82
2017-03-27T04:53:20.992Z,1018.84
2017-03-27T04:53:47.096Z,1018.84
2017-03-27T04:54:13.243Z,1018.83
2017-03-27T04:54:39.349Z,1018.83
2017-03-27T04:55:05.452Z,1018.81
2017-03-27T04:55:31.528Z,1018.83
2017-03-27T04:55:57.614Z,1018.82
2017-03-27T04:56:23.689Z,1018.84
2017-03-27T04:56:49.787Z,1018.84
2017-03-27T04:57:15.892Z,1018.86
2017-03-27T04:57:42.014Z,1018.9
2017-03-27T04:58:08.115Z,1018.87
2017-03-27T04:58:34.262Z,1018.88
2017-03-27T04:59:00.365Z,1018.88
2017-03-27T04:59:26.489Z,1018.87
2017-03-27T04:59:52.615Z,1018.83
2017-03-27T05:00:18.739Z,1018.87
2017-03-27T05:00:44.838Z,1018.84
2017-03-27T05:01:10.943Z,1018.83
2017-03-27T05:01:37.023Z,1018.92
2017-03-27T05:02:03.125Z,1018.85
2017-03-27T05:02:29.207Z,1018.85
2017-03-27T05:02:55.353Z,1018.85
2017-03-27T05:03:21.480Z,1018.8
2017-03-27T05:03:47.605Z,1018.87
2017-03-27T05:04:13.729Z,1018.86
2017-03-27T05:04:39.833Z,1018.89
2017-03-27T05:05:05.913Z,1018.87
2017-03-27T05:05:32.015Z,1018.92
2017-03-27T05:05:58.093Z,1018.88
2017-03-27T05:06:24.195Z,1018.97
2017-03-27T05:06:50.275Z,1018.93
2017-03-27T05:07:16.381Z,1018.89
2017-03-27T05:07:42.530Z,1018.95
2017-03-27T05:08:08.679Z,1018.94
2017-03-27T05:08:34.805Z,1018.95
2017-03-27T05:09:00.930Z,1018.95
2017-03-27T05:09:27.074Z,1018.94
2017-03-27T05:09:53.176Z,1018.95
2017-03-27T05:10:19.278Z,1018.94
2017-03-27T05:10:45.380Z,1018.99
2017-03-27T05:11:11.501Z,1018.97
2017-03-27T05:11:37.580Z,1018.97
2017-03-27T05:12:06.719Z,1018.95
2017-03-27T05:12:32.817Z,1018.96
2017-03-27T05:12:58.945Z,1018.95
2017-03-27T05:13:25.092Z,1018.95
2017-03-27T05:13:51.194Z,1018.92
2017-03-27T05:14:17.318Z,1018.99
2017-03-27T05:14:43.440Z,1018.97
2017-03-27T05:15:09.539Z,1018.93
2017-03-27T05:15:35.643Z,1018.94
2017-03-27T05:16:01.746Z,1018.95
2017-03-27T05:16:27.825Z,1018.94
2017-03-27T05:16:54.129Z,1018.95
2017-03-27T05:17:20.209Z,1018.98
2017-03-27T05:17:46.316Z,1019.01
2017-03-27T05:18:12.443Z,1018.97
2017-03-27T05:18:38.547Z,1018.98
2017-03-27T05:19:04.675Z,1018.96
2017-03-27T05:19:30.800Z,1018.95
2017-03-27T05:19:56.928Z,1019
2017-03-27T05:20:23.032Z,1018.98
2017-03-27T05:20:49.109Z,1018.96
2017-03-27T05:21:15.212Z,1018.93
2017-03-27T05:21:41.341Z,1018.98
2017-03-27T05:22:07.425Z,1018.99
2017-03-27T05:22:33.548Z,1019.01
2017-03-27T05:22:59.650Z,1019.01
2017-03-27T05:23:25.775Z,1018.95
2017-03-27T05:23:51.921Z,1019.01
2017-03-27T05:24:18.049Z,1019.01
2017-03-27T05:24:44.128Z,1019.04
2017-03-27T05:25:10.233Z,1019.04
2017-03-27T05:25:36.311Z,1019.01
2017-03-27T05:26:02.414Z,1019.02
2017-03-27T05:26:28.564Z,1019.06
2017-03-27T05:26:54.647Z,1019.05
2017-03-27T05:27:20.793Z,1019.01